createdAt,value
2019-02-26T00:02:02.042Z,102325.59
2019-02-26T00:04:34.446Z,102317.98
2019-02-26T00:07:07.387Z,102309.00
2019-02-26T00:09:39.615Z,102305.41
2019-02-26T00:12:11.246Z,102293.75
2019-02-26T00:14:43.052Z,102290.56
2019-02-26T00:17:17.553Z,102285.16
2019-02-26T00:19:49.337Z,102272.95
2019-02-26T00:22:21.461Z,102270.70
2019-02-26T00:24:53.080Z,102272.81
2019-02-26T00:27:26.243Z,102269.17
2019-02-26T00:29:58.068Z,102261.98
2019-02-26T00:32:30.363Z,102261.55
2019-02-26T00:35:06.945Z,102267.44
2019-02-26T00:37:38.768Z,102275.43
2019-02-26T00:40:14.616Z,102270.96
2019-02-26T00:42:50.256Z,102270.48
2019-02-26T00:45:24.739Z,102270.02
2019-02-26T00:47:53.519Z,102274.01
2019-02-26T00:50:25.191Z,102252.64
2019-02-26T00:52:58.852Z,102252.17
2019-02-26T00:55:32.213Z,102259.33
2019-02-26T00:58:05.830Z,102252.61
2019-02-26T01:00:37.503Z,102245.80
2019-02-26T01:03:11.057Z,102238.56
2019-02-26T01:05:43.161Z,102233.69
2019-02-26T01:08:17.481Z,102235.91
2019-02-26T01:10:49.186Z,102236.82
2019-02-26T01:13:22.407Z,102230.09
2019-02-26T01:15:54.321Z,102232.78
2019-02-26T01:18:26.840Z,102239.12
2019-02-26T01:21:00.259Z,102239.47
2019-02-26T01:23:32.410Z,102223.21
2019-02-26T01:26:04.008Z,102212.85
2019-02-26T01:28:35.688Z,102206.09
2019-02-26T01:31:07.427Z,102210.20
2019-02-26T01:33:39.169Z,102213.00
2019-02-26T01:36:10.760Z,102202.28
2019-02-26T01:38:44.390Z,102211.26
2019-02-26T01:41:17.859Z,102199.77
2019-02-26T01:43:49.272Z,102188.52
2019-02-26T01:46:20.805Z,102190.03
2019-02-26T01:48:53.069Z,102191.81
2019-02-26T01:51:26.097Z,102191.87
2019-02-26T01:53:58.967Z,102183.44
2019-02-26T01:56:30.631Z,102172.22
2019-02-26T01:59:02.844Z,102171.78
2019-02-26T02:01:34.507Z,102174.03
2019-02-26T02:04:08.208Z,102166.84
2019-02-26T02:06:41.236Z,102167.38
2019-02-26T02:09:13.996Z,102158.85
2019-02-26T02:11:45.845Z,102158.87
2019-02-26T02:14:17.618Z,102170.14
2019-02-26T02:16:49.771Z,102163.45
2019-02-26T02:19:23.395Z,102159.05
2019-02-26T02:21:58.283Z,102164.41
2019-02-26T02:24:29.908Z,102158.63
2019-02-26T02:27:01.522Z,102151.92
2019-02-26T02:29:33.603Z,102158.20
2019-02-26T02:32:07.731Z,102156.86
2019-02-26T02:34:40.888Z,102162.70
2019-02-26T02:37:14.848Z,102161.38
2019-02-26T02:39:46.461Z,102158.70
2019-02-26T02:42:19.105Z,102144.80
2019-02-26T02:44:52.792Z,102143.95
2019-02-26T02:47:25.318Z,102139.02
2019-02-26T02:49:58.090Z,102145.70
2019-02-26T02:52:30.457Z,102156.88
2019-02-26T02:55:04.560Z,102163.58
2019-02-26T02:57:36.083Z,102158.64
2019-02-26T03:00:12.007Z,102153.28
2019-02-26T03:02:46.792Z,102159.98
2019-02-26T03:05:17.497Z,102163.56
2019-02-26T03:07:51.648Z,102169.84
2019-02-26T03:10:26.087Z,102177.89
2019-02-26T03:12:57.805Z,102172.98
2019-02-26T03:15:30.023Z,102159.12
2019-02-26T03:18:04.157Z,102163.16
2019-02-26T03:20:40.157Z,102174.78
2019-02-26T03:23:15.166Z,102173.02
2019-02-26T03:25:44.519Z,102166.31
2019-02-26T03:28:39.988Z,102164.50
2019-02-26T03:31:12.174Z,102160.48
2019-02-26T03:33:44.257Z,102164.09
2019-02-26T03:36:16.720Z,102168.99
2019-02-26T03:38:51.183Z,102188.66
2019-02-26T03:41:26.143Z,102202.14
2019-02-26T03:44:00.316Z,102200.33
2019-02-26T03:46:30.575Z,102213.77
2019-02-26T03:49:02.773Z,102202.56
2019-02-26T03:51:39.120Z,102180.64
2019-02-26T03:54:08.599Z,102176.17
2019-02-26T03:56:40.101Z,102178.82
2019-02-26T03:59:11.864Z,102177.95
2019-02-26T04:01:43.583Z,102176.60
2019-02-26T04:04:15.171Z,102174.36
2019-02-26T04:06:47.325Z,102174.38
2019-02-26T04:09:19.627Z,102181.50
2019-02-26T04:11:53.412Z,102196.30
2019-02-26T04:14:26.361Z,102188.69
2019-02-26T04:17:01.488Z,102196.78
2019-02-26T04:19:32.151Z,102210.67
2019-02-26T04:22:31.096Z,102209.30
2019-02-26T04:25:16.702Z,102199.45
2019-02-26T04:27:57.002Z,102186.93
2019-02-26T04:30:59.742Z,102184.67
2019-02-26T04:33:38.593Z,102183.36
2019-02-26T04:36:29.466Z,102183.36
2019-02-26T04:39:42.274Z,102188.28
2019-02-26T04:42:43.681Z,102209.70
2019-02-26T04:46:07.895Z,102189.63
2019-02-26T04:48:51.694Z,102186.97
2019-02-26T04:51:23.247Z,102189.63
2019-02-26T04:53:56.132Z,102195.87
2019-02-26T04:56:31.262Z,102208.41
2019-02-26T04:59:03.584Z,102204.83
2019-02-26T05:01:34.780Z,102217.80
2019-02-26T05:04:06.452Z,102228.05
2019-02-26T05:06:38.004Z,102236.14
2019-02-26T05:09:10.620Z,102213.76
2019-02-26T05:11:42.401Z,102217.80
2019-02-26T05:14:15.405Z,102232.54
2019-02-26T05:16:47.258Z,102232.52
2019-02-26T05:19:21.510Z,102241.03
2019-02-26T05:21:53.605Z,102251.72
2019-02-26T05:24:26.277Z,102239.19
2019-02-26T05:26:58.014Z,102231.16
2019-02-26T05:29:29.564Z,102234.73
2019-02-26T05:32:04.002Z,102234.30
2019-02-26T05:34:37.357Z,102236.53
2019-02-26T05:37:11.100Z,102246.36
2019-02-26T05:39:43.259Z,102259.34
2019-02-26T05:42:15.225Z,102265.60
2019-02-26T05:44:46.760Z,102268.77
2019-02-26T05:47:21.552Z,102274.12
2019-02-26T05:49:52.275Z,102270.52
2019-02-26T05:52:25.034Z,102259.33
2019-02-26T05:54:57.104Z,102267.83
2019-02-26T05:57:32.550Z,102277.21
2019-02-26T06:00:01.982Z,102278.13
2019-02-26T06:02:36.675Z,102266.06
2019-02-26T06:05:11.659Z,102273.63
2019-02-26T06:07:43.226Z,102287.92
2019-02-26T06:10:14.743Z,102284.37
2019-02-26T06:12:46.755Z,102294.20
2019-02-26T06:15:20.419Z,102288.83
2019-02-26T06:17:53.417Z,102276.77
2019-02-26T06:20:28.062Z,102279.89
2019-02-26T06:22:58.274Z,102286.58
2019-02-26T06:25:30.062Z,102283.48
2019-02-26T06:28:04.519Z,102277.66
2019-02-26T06:30:34.874Z,102284.33
2019-02-26T06:33:07.113Z,102290.63
2019-02-26T06:35:41.145Z,102293.30
2019-02-26T06:38:13.704Z,102286.61
2019-02-26T06:40:47.089Z,102297.81
2019-02-26T06:43:18.496Z,102293.31
2019-02-26T06:45:50.240Z,102299.58
2019-02-26T06:48:24.604Z,102298.25
2019-02-26T06:50:57.582Z,102301.40
2019-02-26T06:53:29.920Z,102300.91
2019-02-26T06:56:02.192Z,102305.83
2019-02-26T06:58:35.456Z,102318.78
2019-02-26T07:01:09.633Z,102312.52
2019-02-26T07:03:41.104Z,102319.70
2019-02-26T07:06:12.693Z,102312.09
2019-02-26T07:08:45.039Z,102314.78
2019-02-26T07:11:17.664Z,102325.51
2019-02-26T07:13:49.235Z,102319.25
2019-02-26T07:16:21.202Z,102320.58
2019-02-26T07:18:52.836Z,102311.63
2019-02-26T07:21:24.798Z,102315.65
2019-02-26T07:23:56.935Z,102308.53
2019-02-26T07:26:29.564Z,102310.28
2019-02-26T07:29:03.359Z,102331.78
2019-02-26T07:31:35.510Z,102321.05
2019-02-26T07:34:07.295Z,102320.59
2019-02-26T07:36:41.018Z,102328.20
2019-02-26T07:39:12.937Z,102332.21
2019-02-26T07:41:47.102Z,102322.84
2019-02-26T07:44:21.252Z,102332.67
2019-02-26T07:46:52.341Z,102343.40
2019-02-26T07:49:24.001Z,102358.18
2019-02-26T07:51:57.773Z,102334.02
2019-02-26T07:54:29.273Z,102325.96
2019-02-26T07:57:02.671Z,102333.55
2019-02-26T07:59:34.882Z,102338.91
2019-02-26T08:02:08.841Z,102323.27
2019-02-26T08:04:43.643Z,102316.51
2019-02-26T08:07:15.347Z,102295.42
2019-02-26T08:09:47.033Z,102307.06
2019-02-26T08:12:18.655Z,102328.08
2019-02-26T08:14:50.365Z,102344.17
2019-02-26T08:17:21.958Z,102338.36
2019-02-26T08:19:53.647Z,102322.64
2019-02-26T08:22:27.015Z,102318.16
2019-02-26T08:24:58.708Z,102324.45
2019-02-26T08:27:30.859Z,102337.47
2019-02-26T08:30:04.275Z,102322.21
2019-02-26T08:32:36.089Z,102321.75
2019-02-26T08:35:09.284Z,102323.02
2019-02-26T08:37:40.950Z,102324.32
2019-02-26T08:40:14.182Z,102337.24
2019-02-26T08:42:45.810Z,102335.77
2019-02-26T08:45:22.874Z,102341.13
2019-02-26T08:47:53.729Z,102342.41
2019-02-26T08:50:28.524Z,102341.97
2019-02-26T08:52:59.166Z,102341.97
2019-02-26T08:55:30.869Z,102336.43
2019-02-26T08:58:02.658Z,102338.17
2019-02-26T09:00:34.375Z,102333.96
2019-02-26T09:03:08.277Z,102342.35
2019-02-26T09:05:39.578Z,102339.19
2019-02-26T09:08:14.018Z,102341.56
2019-02-26T09:10:46.920Z,102342.94
2019-02-26T09:13:19.221Z,102349.56
2019-02-26T09:15:51.008Z,102338.00
2019-02-26T09:18:24.729Z,102350.72
2019-02-26T09:20:56.121Z,102345.74
2019-02-26T09:23:28.809Z,102352.33
2019-02-26T09:26:02.602Z,102338.79
2019-02-26T09:28:34.826Z,102345.91
2019-02-26T09:31:07.390Z,102328.84
2019-02-26T09:33:40.927Z,102335.63
2019-02-26T09:36:15.713Z,102327.94
2019-02-26T09:38:46.889Z,102323.03
2019-02-26T09:41:21.445Z,102330.75
2019-02-26T09:43:53.286Z,102334.83
2019-02-26T09:46:24.817Z,102343.77
2019-02-26T09:48:57.916Z,102331.73
2019-02-26T09:51:30.692Z,102325.09
2019-02-26T09:54:02.995Z,102331.78
2019-02-26T09:56:34.728Z,102334.36
2019-02-26T09:59:07.124Z,102339.66
2019-02-26T10:01:40.764Z,102337.92
2019-02-26T10:04:12.806Z,102330.40
2019-02-26T10:06:44.953Z,102340.72
2019-02-26T10:09:18.908Z,102347.92
2019-02-26T10:11:51.690Z,102347.05
2019-02-26T10:14:23.405Z,102350.25
2019-02-26T10:16:56.951Z,102344.36
2019-02-26T10:19:28.464Z,102345.27
2019-02-26T10:22:00.711Z,102346.55
2019-02-26T10:24:35.290Z,102348.36
2019-02-26T10:27:10.921Z,102352.40
2019-02-26T10:29:44.824Z,102346.47
2019-02-26T10:32:15.005Z,102344.13
2019-02-26T10:34:46.550Z,102342.83
2019-02-26T10:37:18.156Z,102341.84
2019-02-26T10:39:52.022Z,102333.23
2019-02-26T10:42:23.205Z,102334.79
2019-02-26T10:44:54.826Z,102324.92
2019-02-26T10:47:27.503Z,102327.56
2019-02-26T10:49:59.895Z,102328.34
2019-02-26T10:52:31.542Z,102329.73
2019-02-26T10:55:03.172Z,102338.15
2019-02-26T10:57:36.161Z,102329.05
2019-02-26T11:00:19.287Z,102327.70
2019-02-26T11:02:54.030Z,102322.27
2019-02-26T11:05:26.404Z,102337.09
2019-02-26T11:08:01.887Z,102320.32
2019-02-26T11:10:32.087Z,102311.36
2019-02-26T11:13:03.763Z,102313.20
2019-02-26T11:15:36.100Z,102316.86
2019-02-26T11:18:08.361Z,102313.64
2019-02-26T11:20:41.190Z,102318.09
2019-02-26T11:23:14.229Z,102324.25
2019-02-26T11:25:46.139Z,102309.23
2019-02-26T11:28:17.763Z,102305.63
2019-02-26T11:30:51.714Z,102311.20
2019-02-26T11:33:23.092Z,102311.20
2019-02-26T11:35:54.698Z,102303.23
2019-02-26T11:38:27.355Z,102303.24
2019-02-26T11:40:58.905Z,102297.66
2019-02-26T11:43:30.437Z,102303.91
2019-02-26T11:46:03.870Z,102304.50
2019-02-26T11:48:35.345Z,102305.34
2019-02-26T11:51:06.954Z,102312.58
2019-02-26T11:53:38.588Z,102315.23
2019-02-26T11:56:10.115Z,102299.38
2019-02-26T11:58:41.653Z,102302.50
2019-02-26T12:01:13.311Z,102295.56
2019-02-26T12:03:44.935Z,102298.70
2019-02-26T12:06:17.077Z,102296.45
2019-02-26T12:08:50.048Z,102297.78
2019-02-26T12:11:23.297Z,102286.84
2019-02-26T12:13:55.241Z,102279.67
2019-02-26T12:16:28.478Z,102273.32
2019-02-26T12:19:03.510Z,102274.91
2019-02-26T12:21:36.923Z,102275.30
2019-02-26T12:24:09.227Z,102272.17
2019-02-26T12:26:42.355Z,102272.77
2019-02-26T12:29:16.155Z,102274.82
2019-02-26T12:31:47.837Z,102276.81
2019-02-26T12:34:20.794Z,102274.53
2019-02-26T12:36:53.713Z,102266.27
2019-02-26T12:39:29.162Z,102267.05
2019-02-26T12:41:59.292Z,102255.16
2019-02-26T12:44:32.035Z,102251.79
2019-02-26T12:47:04.280Z,102250.53
2019-02-26T12:49:38.493Z,102236.17
2019-02-26T12:52:09.196Z,102231.58
2019-02-26T12:54:42.835Z,102232.01
2019-02-26T12:57:18.411Z,102228.22
2019-02-26T12:59:49.198Z,102228.53
2019-02-26T13:02:24.610Z,102228.88
2019-02-26T13:04:54.165Z,102228.88
2019-02-26T13:07:25.993Z,102233.25
2019-02-26T13:10:02.782Z,102225.06
2019-02-26T13:12:32.225Z,102230.56
2019-02-26T13:15:09.524Z,102225.60
2019-02-26T13:17:38.856Z,102229.47
2019-02-26T13:20:14.797Z,102236.14
2019-02-26T13:22:46.386Z,102241.95
2019-02-26T13:25:21.578Z,102240.60
2019-02-26T13:27:51.315Z,102244.72
2019-02-26T13:30:27.381Z,102243.38
2019-02-26T13:33:00.880Z,102243.48
2019-02-26T13:35:32.222Z,102247.55
2019-02-26T13:38:05.596Z,102248.81
2019-02-26T13:40:38.670Z,102244.83
2019-02-26T13:43:10.349Z,102254.31
2019-02-26T13:45:42.025Z,102236.28
2019-02-26T13:48:13.862Z,102238.00
2019-02-26T13:50:45.399Z,102251.59
2019-02-26T13:53:17.000Z,102244.95
2019-02-26T13:55:48.671Z,102248.03
2019-02-26T13:58:20.337Z,102248.88
2019-02-26T14:00:52.107Z,102257.33
2019-02-26T14:03:24.456Z,102253.79
2019-02-26T14:05:56.042Z,102253.70
2019-02-26T14:08:27.651Z,102255.97
2019-02-26T14:10:59.195Z,102262.33
2019-02-26T14:13:30.801Z,102258.75
2019-02-26T14:16:04.034Z,102258.25
2019-02-26T14:18:35.691Z,102263.68
2019-02-26T14:21:07.229Z,102273.52
2019-02-26T14:23:38.840Z,102276.16
2019-02-26T14:26:10.342Z,102272.88
2019-02-26T14:28:42.014Z,102278.59
2019-02-26T14:31:13.589Z,102285.27
2019-02-26T14:33:45.131Z,102273.48
2019-02-26T14:36:16.668Z,102268.62
2019-02-26T14:38:48.329Z,102269.20
2019-02-26T14:41:19.897Z,102290.45
2019-02-26T14:43:51.499Z,102282.56
2019-02-26T14:46:23.154Z,102279.70
2019-02-26T14:48:54.704Z,102287.06
2019-02-26T14:51:26.807Z,102282.59
2019-02-26T14:53:58.478Z,102284.97
2019-02-26T14:56:30.109Z,102292.20
2019-02-26T14:59:01.626Z,102287.66
2019-02-26T15:01:33.232Z,102283.25
2019-02-26T15:04:05.310Z,102283.27
2019-02-26T15:06:36.922Z,102277.27
2019-02-26T15:09:08.449Z,102278.78
2019-02-26T15:11:40.568Z,102281.16
2019-02-26T15:14:12.191Z,102281.34
2019-02-26T15:16:43.745Z,102290.80
2019-02-26T15:19:15.265Z,102290.17
2019-02-26T15:21:47.345Z,102294.23
2019-02-26T15:24:19.447Z,102288.56
2019-02-26T15:26:50.975Z,102287.37
2019-02-26T15:29:22.566Z,102285.47
2019-02-26T15:31:54.216Z,102276.58
2019-02-26T15:34:25.873Z,102272.70
2019-02-26T15:36:58.282Z,102275.40
2019-02-26T15:39:30.177Z,102275.62
2019-02-26T15:42:01.862Z,102276.48
2019-02-26T15:44:33.654Z,102291.03
2019-02-26T15:49:54.700Z,102284.44
2019-02-26T15:52:46.020Z,102277.19
2019-02-26T15:55:25.859Z,102287.72
2019-02-26T15:57:57.737Z,102287.67
2019-02-26T16:00:30.913Z,102297.25
2019-02-26T16:03:02.478Z,102291.98
2019-02-26T16:05:39.295Z,102290.28
2019-02-26T16:08:11.026Z,102289.38
2019-02-26T16:10:42.693Z,102296.19
2019-02-26T16:13:15.297Z,102298.13
2019-02-26T16:15:47.650Z,102300.86
2019-02-26T16:18:19.479Z,102297.80
2019-02-26T16:20:51.083Z,102293.88
2019-02-26T16:23:22.684Z,102296.20
2019-02-26T16:25:54.344Z,102313.84
2019-02-26T16:28:27.264Z,102315.78
2019-02-26T16:31:00.058Z,102317.99
2019-02-26T16:33:31.740Z,102314.48
2019-02-26T16:36:03.359Z,102313.74
2019-02-26T16:38:35.343Z,102322.14
2019-02-26T16:41:06.931Z,102323.24
2019-02-26T16:43:38.476Z,102320.68
2019-02-26T16:46:10.589Z,102320.30
2019-02-26T16:48:42.181Z,102325.80
2019-02-26T16:51:13.692Z,102319.16
2019-02-26T16:53:45.334Z,102329.13
2019-02-26T16:56:16.969Z,102325.16
2019-02-26T16:58:48.549Z,102331.08
2019-02-26T17:01:21.802Z,102332.96
2019-02-26T17:03:53.936Z,102337.02
2019-02-26T17:06:25.495Z,102342.92
2019-02-26T17:08:57.174Z,102345.64
2019-02-26T17:11:28.845Z,102345.67
2019-02-26T17:14:01.077Z,102351.08
2019-02-26T17:16:32.702Z,102360.08
2019-02-26T17:19:04.365Z,102361.43
2019-02-26T17:21:36.078Z,102358.30
2019-02-26T17:24:07.649Z,102360.14
2019-02-26T17:26:39.192Z,102364.19
2019-02-26T17:29:11.426Z,102361.95
2019-02-26T17:31:45.242Z,102363.31
2019-02-26T17:34:17.703Z,102362.91
2019-02-26T17:36:50.075Z,102365.59
2019-02-26T17:39:23.702Z,102370.98
2019-02-26T17:41:56.927Z,102375.47
2019-02-26T17:44:28.227Z,102372.80
2019-02-26T17:46:59.840Z,102382.22
2019-02-26T17:49:33.658Z,102381.33
2019-02-26T17:52:06.497Z,102394.73
2019-02-26T17:54:39.594Z,102388.52
2019-02-26T17:57:11.322Z,102394.78
2019-02-26T17:59:43.228Z,102393.87
2019-02-26T18:02:14.863Z,102394.31
2019-02-26T18:04:46.625Z,102396.13
2019-02-26T18:07:18.422Z,102399.70
2019-02-26T18:09:50.640Z,102405.11
2019-02-26T18:12:22.384Z,102398.38
2019-02-26T18:14:56.088Z,102401.03
2019-02-26T18:17:27.429Z,102402.80
2019-02-26T18:19:58.971Z,102410.86
2019-02-26T18:22:30.549Z,102404.58
2019-02-26T18:25:02.146Z,102399.20
2019-02-26T18:27:33.821Z,102397.86
2019-02-26T18:30:12.557Z,102395.22
2019-02-26T18:32:50.219Z,102390.25
2019-02-26T18:35:17.557Z,102391.17
2019-02-26T18:37:49.215Z,102393.91
2019-02-26T18:40:20.982Z,102402.44
2019-02-26T18:42:52.590Z,102403.75
2019-02-26T18:45:31.633Z,102407.77
2019-02-26T18:48:03.319Z,102417.63
2019-02-26T18:50:34.996Z,102415.84
2019-02-26T18:53:06.680Z,102421.70
2019-02-26T18:55:38.283Z,102425.70
2019-02-26T18:58:10.034Z,102425.72
2019-02-26T19:00:41.996Z,102419.45
2019-02-26T19:03:17.853Z,102421.24
2019-02-26T19:05:53.789Z,102411.39
2019-02-26T19:08:24.072Z,102413.17
2019-02-26T19:10:55.736Z,102410.06
2019-02-26T19:13:27.318Z,102406.03
2019-02-26T19:15:58.847Z,102417.19
2019-02-26T19:18:30.469Z,102412.75
2019-02-26T19:21:02.711Z,102402.00
2019-02-26T19:23:34.334Z,102403.34
2019-02-26T19:26:06.109Z,102401.58
2019-02-26T19:28:38.723Z,102404.27
2019-02-26T19:31:10.535Z,102406.48
2019-02-26T19:33:43.628Z,102403.37
2019-02-26T19:36:15.867Z,102423.92
2019-02-26T19:38:48.545Z,102420.33
2019-02-26T19:41:20.228Z,102413.19
2019-02-26T19:43:52.494Z,102418.56
2019-02-26T19:46:27.928Z,102406.91
2019-02-26T19:49:08.284Z,102395.29
2019-02-26T19:51:41.067Z,102400.61
2019-02-26T19:54:13.048Z,102407.31
2019-02-26T19:56:45.385Z,102407.73
2019-02-26T19:59:17.131Z,102409.08
2019-02-26T20:01:48.824Z,102398.36
2019-02-26T20:04:21.535Z,102390.29
2019-02-26T20:06:54.187Z,102398.80
2019-02-26T20:09:26.152Z,102397.47
2019-02-26T20:12:00.049Z,102405.03
2019-02-26T20:14:51.452Z,102406.78
2019-02-26T20:17:24.387Z,102411.69
2019-02-26T20:19:56.708Z,102410.81
2019-02-26T20:22:30.601Z,102417.53
2019-02-26T20:25:03.915Z,102424.66
2019-02-26T20:27:36.958Z,102414.36
2019-02-26T20:30:16.967Z,102419.25
2019-02-26T20:32:50.015Z,102416.99
2019-02-26T20:35:21.662Z,102422.77
2019-02-26T20:37:53.272Z,102420.91
2019-02-26T20:40:27.394Z,102411.09
2019-02-26T20:43:01.852Z,102423.53
2019-02-26T20:45:35.353Z,102423.55
2019-02-26T20:48:13.613Z,102422.63
2019-02-26T20:50:56.543Z,102424.78
2019-02-26T20:53:33.414Z,102413.13
2019-02-26T20:56:09.588Z,102411.77
2019-02-26T20:58:44.670Z,102421.56
2019-02-26T21:01:15.835Z,102418.39
2019-02-26T21:03:47.557Z,102423.25
2019-02-26T21:06:19.261Z,102425.08
2019-02-26T21:08:50.895Z,102421.88
2019-02-26T21:11:23.265Z,102434.41
2019-02-26T21:13:54.924Z,102429.41
2019-02-26T21:16:27.203Z,102434.61
2019-02-26T21:19:02.689Z,102434.96
2019-02-26T21:21:32.095Z,102433.65
2019-02-26T21:24:03.656Z,102442.94
2019-02-26T21:26:35.277Z,102438.39
2019-02-26T21:29:06.855Z,102434.40
2019-02-26T21:31:39.009Z,102436.17
2019-02-26T21:34:10.623Z,102436.25
2019-02-26T21:36:42.309Z,102433.08
2019-02-26T21:39:13.872Z,102430.37
2019-02-26T21:41:45.462Z,102428.98
2019-02-26T21:44:17.142Z,102436.95
2019-02-26T21:46:48.709Z,102444.89
2019-02-26T21:49:21.777Z,102437.77
2019-02-26T21:51:55.186Z,102440.48
2019-02-26T21:54:26.873Z,102436.95
2019-02-26T21:56:58.489Z,102444.91
2019-02-26T21:59:32.564Z,102449.77
2019-02-26T22:02:03.428Z,102446.20
2019-02-26T22:04:35.095Z,102443.20
2019-02-26T22:07:07.147Z,102443.61
2019-02-26T22:09:38.916Z,102448.53
2019-02-26T22:12:10.634Z,102446.77
2019-02-26T22:14:42.641Z,102447.81
2019-02-26T22:17:15.176Z,102447.89
2019-02-26T22:19:46.701Z,102439.87
2019-02-26T22:22:19.053Z,102445.67
2019-02-26T22:24:53.065Z,102449.35
2019-02-26T22:27:24.632Z,102444.55
2019-02-26T22:29:56.233Z,102440.63
2019-02-26T22:32:27.836Z,102440.22
2019-02-26T22:34:59.682Z,102431.34
2019-02-26T22:37:31.457Z,102433.13
2019-02-26T22:40:03.168Z,102431.33
2019-02-26T22:42:34.729Z,102430.44
2019-02-26T22:45:09.964Z,102434.89
2019-02-26T22:47:43.947Z,102438.44
2019-02-26T22:50:17.353Z,102446.44
2019-02-26T22:52:48.870Z,102442.92
2019-02-26T22:55:20.464Z,102441.22
2019-02-26T22:57:52.418Z,102443.93
2019-02-26T23:00:50.254Z,102441.59
2019-02-26T23:03:23.883Z,102446.07
2019-02-26T23:05:58.789Z,102438.97
2019-02-26T23:08:29.355Z,102442.07
2019-02-26T23:11:00.980Z,102445.59
2019-02-26T23:13:33.678Z,102435.78
2019-02-26T23:16:05.780Z,102436.70
2019-02-26T23:18:37.377Z,102439.38
2019-02-26T23:21:10.039Z,102439.81
2019-02-26T23:23:42.002Z,102438.45
2019-02-26T23:26:13.705Z,102437.13
2019-02-26T23:28:45.454Z,102435.34
2019-02-26T23:31:17.927Z,102438.92
2019-02-26T23:33:49.669Z,102435.32
2019-02-26T23:36:21.771Z,102431.75
2019-02-26T23:38:53.501Z,102433.06
2019-02-26T23:41:25.098Z,102433.95
2019-02-26T23:43:56.698Z,102434.84
2019-02-26T23:46:29.805Z,102428.56
2019-02-26T23:49:02.403Z,102431.60
2019-02-26T23:51:33.974Z,102435.55
2019-02-26T23:54:07.281Z,102435.44
2019-02-26T23:56:38.800Z,102432.72
2019-02-26T23:59:10.726Z,102437.64
